createdAt,value
2018-08-22T00:01:40.284Z,19.00
2018-08-22T00:04:09.623Z,18.90
2018-08-22T00:06:39.580Z,19.00
2018-08-22T00:09:09.812Z,19.00
2018-08-22T00:11:38.871Z,18.80
2018-08-22T00:14:08.647Z,18.80
2018-08-22T00:16:38.133Z,18.90
2018-08-22T00:19:07.721Z,19.00
2018-08-22T00:21:36.835Z,19.00
2018-08-22T00:24:05.815Z,18.90
2018-08-22T00:26:35.802Z,18.80
2018-08-22T00:29:05.387Z,18.80
2018-08-22T00:31:34.724Z,18.80
2018-08-22T00:34:04.055Z,18.70
2018-08-22T00:36:33.354Z,18.70
2018-08-22T00:39:08.115Z,18.60
2018-08-22T00:41:37.763Z,18.70
2018-08-22T00:44:06.976Z,18.70
2018-08-22T00:46:36.316Z,18.70
2018-08-22T00:49:05.987Z,18.60
2018-08-22T00:51:36.017Z,18.50
2018-08-22T00:54:05.390Z,18.50
2018-08-22T00:56:35.967Z,18.50
2018-08-22T00:59:05.419Z,18.50
2018-08-22T01:01:34.799Z,18.50
2018-08-22T01:04:04.088Z,18.60
2018-08-22T01:06:33.256Z,18.60
2018-08-22T01:09:02.652Z,18.40
2018-08-22T01:11:32.053Z,18.50
2018-08-22T01:14:01.606Z,18.40
2018-08-22T01:16:31.030Z,18.50
2018-08-22T01:19:00.341Z,18.50
2018-08-22T01:21:29.669Z,18.40
2018-08-22T01:23:59.668Z,18.40
2018-08-22T01:26:28.742Z,18.30
2018-08-22T01:29:04.706Z,18.30
2018-08-22T01:31:34.029Z,18.30
2018-08-22T01:34:03.808Z,18.40
2018-08-22T01:36:34.251Z,18.30
2018-08-22T01:39:04.263Z,18.20
2018-08-22T01:41:33.583Z,18.30
2018-08-22T01:44:03.001Z,18.30
2018-08-22T01:46:33.287Z,18.40
2018-08-22T01:49:02.407Z,18.30
2018-08-22T01:51:31.683Z,18.30
2018-08-22T01:54:01.028Z,18.20
2018-08-22T01:56:30.367Z,18.20
2018-08-22T01:58:59.579Z,18.20
2018-08-22T02:01:28.848Z,18.00
2018-08-22T02:03:58.226Z,18.00
2018-08-22T02:06:27.453Z,18.10
2018-08-22T02:08:57.047Z,17.90
2018-08-22T02:11:26.412Z,17.90
2018-08-22T02:13:55.662Z,17.80
2018-08-22T02:16:24.978Z,17.90
2018-08-22T02:18:54.124Z,17.80
2018-08-22T02:21:23.538Z,17.70
2018-08-22T02:23:52.855Z,17.70
2018-08-22T02:26:22.179Z,17.60
2018-08-22T02:28:51.584Z,17.50
2018-08-22T02:31:20.824Z,17.50
2018-08-22T02:33:50.163Z,17.50
2018-08-22T02:36:19.507Z,17.50
2018-08-22T02:38:48.871Z,17.40
2018-08-22T02:41:18.293Z,17.40
2018-08-22T02:43:47.614Z,17.40
2018-08-22T02:46:17.044Z,17.40
2018-08-22T02:48:51.620Z,17.40
2018-08-22T02:51:21.071Z,17.30
2018-08-22T02:53:50.500Z,17.20
2018-08-22T02:56:19.977Z,17.40
2018-08-22T02:58:49.488Z,17.40
2018-08-22T03:01:18.667Z,17.50
2018-08-22T03:03:48.058Z,17.40
2018-08-22T03:06:17.172Z,17.30
2018-08-22T03:08:46.596Z,17.30
2018-08-22T03:11:15.635Z,17.10
2018-08-22T03:13:45.997Z,17.00
2018-08-22T03:16:15.465Z,17.10
2018-08-22T03:18:44.816Z,17.20
2018-08-22T03:21:14.144Z,17.20
2018-08-22T03:23:43.604Z,17.20
2018-08-22T03:26:13.641Z,17.10
2018-08-22T03:28:42.916Z,17.10
2018-08-22T03:31:12.147Z,17.00
2018-08-22T03:33:41.481Z,17.00
2018-08-22T03:36:10.800Z,16.90
2018-08-22T03:38:39.888Z,17.00
2018-08-22T03:41:09.498Z,16.90
2018-08-22T03:43:38.614Z,16.90
2018-08-22T03:46:08.258Z,16.80
2018-08-22T03:48:37.785Z,16.70
2018-08-22T03:51:07.110Z,16.80
2018-08-22T03:53:36.415Z,16.70
2018-08-22T03:56:05.561Z,16.80
2018-08-22T03:58:34.638Z,16.80
2018-08-22T04:01:04.047Z,16.70
2018-08-22T04:03:33.680Z,16.80
2018-08-22T04:06:03.012Z,16.70
2018-08-22T04:08:32.491Z,16.70
2018-08-22T04:11:01.798Z,16.70
2018-08-22T04:13:31.119Z,16.70
2018-08-22T04:16:00.336Z,16.70
2018-08-22T04:18:29.420Z,16.60
2018-08-22T04:20:59.340Z,16.60
2018-08-22T04:23:28.690Z,16.60
2018-08-22T04:25:58.169Z,16.70
2018-08-22T04:28:27.606Z,16.70
2018-08-22T04:30:56.846Z,16.70
2018-08-22T04:33:26.051Z,16.70
2018-08-22T04:35:55.276Z,16.70
2018-08-22T04:38:24.517Z,16.70
2018-08-22T04:40:53.743Z,16.70
2018-08-22T04:43:23.047Z,16.80
2018-08-22T04:45:52.249Z,16.80
2018-08-22T04:48:21.575Z,16.80
2018-08-22T04:50:51.356Z,16.90
2018-08-22T04:53:20.306Z,17.00
2018-08-22T04:55:49.539Z,17.10
2018-08-22T04:58:18.691Z,17.10
2018-08-22T05:00:47.887Z,17.20
2018-08-22T05:03:17.130Z,17.20
2018-08-22T05:05:46.469Z,17.30
2018-08-22T05:08:16.206Z,17.40
2018-08-22T05:10:45.415Z,17.20
2018-08-22T05:13:14.678Z,17.30
2018-08-22T05:15:43.878Z,17.40
2018-08-22T05:18:12.913Z,17.50
2018-08-22T05:20:42.066Z,17.50
2018-08-22T05:23:11.282Z,17.60
2018-08-22T05:25:40.545Z,17.90
2018-08-22T05:28:09.764Z,18.10
2018-08-22T05:30:38.963Z,18.10
2018-08-22T05:33:08.900Z,18.20
2018-08-22T05:35:37.987Z,18.40
2018-08-22T05:38:07.211Z,18.40
2018-08-22T05:40:36.563Z,18.70
2018-08-22T05:43:05.641Z,18.90
2018-08-22T05:45:34.883Z,18.70
2018-08-22T05:48:03.891Z,19.30
2018-08-22T05:50:32.834Z,19.60
2018-08-22T05:53:02.202Z,19.50
2018-08-22T05:55:31.226Z,19.90
2018-08-22T05:58:00.734Z,19.80
2018-08-22T06:00:29.908Z,20.20
2018-08-22T06:02:59.212Z,20.30
2018-08-22T06:05:29.175Z,20.60
2018-08-22T06:07:58.314Z,20.80
2018-08-22T06:10:27.567Z,20.90
2018-08-22T06:12:56.861Z,21.10
2018-08-22T06:15:26.182Z,21.40
2018-08-22T06:17:55.465Z,21.40
2018-08-22T06:20:24.471Z,21.80
2018-08-22T06:22:53.646Z,21.80
2018-08-22T06:25:22.823Z,21.90
2018-08-22T06:27:51.938Z,22.00
2018-08-22T06:30:21.217Z,22.20
2018-08-22T06:32:50.508Z,22.30
2018-08-22T06:35:20.410Z,22.30
2018-08-22T06:37:49.661Z,22.50
2018-08-22T06:40:18.894Z,22.70
2018-08-22T06:42:47.880Z,23.10
2018-08-22T06:45:17.104Z,23.20
2018-08-22T06:47:46.322Z,23.30
2018-08-22T06:50:15.757Z,23.00
2018-08-22T06:52:45.166Z,23.20
2018-08-22T06:55:14.386Z,23.40
2018-08-22T06:57:43.602Z,23.40
2018-08-22T07:00:12.860Z,23.50
2018-08-22T07:02:42.090Z,23.90
2018-08-22T07:05:11.190Z,24.00
2018-08-22T07:07:40.798Z,24.10
2018-08-22T07:10:10.149Z,24.10
2018-08-22T07:12:40.583Z,24.00
2018-08-22T07:15:09.873Z,24.20
2018-08-22T07:17:39.124Z,24.30
2018-08-22T07:20:08.612Z,24.30
2018-08-22T07:22:38.053Z,24.40
2018-08-22T07:25:07.383Z,24.50
2018-08-22T07:27:36.756Z,24.40
2018-08-22T07:30:06.688Z,24.50
2018-08-22T07:32:36.104Z,24.40
2018-08-22T07:35:06.077Z,24.50
2018-08-22T07:37:35.460Z,24.60
2018-08-22T07:40:05.485Z,24.60
2018-08-22T07:42:34.845Z,24.80
2018-08-22T07:45:04.152Z,24.80
2018-08-22T07:47:33.486Z,24.90
2018-08-22T07:50:02.833Z,24.80
2018-08-22T07:52:32.228Z,25.00
2018-08-22T07:55:01.888Z,25.20
2018-08-22T07:57:31.325Z,25.10
2018-08-22T08:00:00.432Z,25.30
2018-08-22T08:02:29.555Z,25.50
2018-08-22T08:05:02.336Z,25.50
2018-08-22T08:07:31.424Z,25.50
2018-08-22T08:10:00.780Z,25.80
2018-08-22T08:12:34.070Z,26.00
2018-08-22T08:15:10.186Z,25.80
2018-08-22T08:17:39.538Z,25.90
2018-08-22T08:20:09.022Z,25.70
2018-08-22T08:22:38.256Z,25.90
2018-08-22T08:25:08.744Z,25.90
2018-08-22T08:27:38.522Z,25.50
2018-08-22T08:30:08.037Z,25.80
2018-08-22T08:32:37.709Z,26.00
2018-08-22T08:35:07.067Z,26.10
2018-08-22T08:37:36.350Z,26.20
2018-08-22T08:40:08.544Z,26.20
2018-08-22T08:42:37.952Z,26.20
2018-08-22T08:45:09.916Z,26.30
2018-08-22T08:47:39.253Z,26.30
2018-08-22T08:50:09.025Z,26.40
2018-08-22T08:52:38.483Z,26.50
2018-08-22T08:55:08.041Z,26.60
2018-08-22T08:57:37.591Z,26.60
2018-08-22T09:00:06.947Z,26.70
2018-08-22T09:02:36.689Z,26.80
2018-08-22T09:05:06.160Z,26.90
2018-08-22T09:07:35.531Z,26.80
2018-08-22T09:10:05.305Z,26.90
2018-08-22T09:12:38.040Z,26.80
2018-08-22T09:15:08.373Z,26.90
2018-08-22T09:17:37.589Z,26.90
2018-08-22T09:20:08.175Z,26.50
2018-08-22T09:22:37.605Z,26.80
2018-08-22T09:25:07.051Z,26.80
2018-08-22T09:27:36.493Z,26.80
2018-08-22T09:30:05.801Z,26.80
2018-08-22T09:32:35.188Z,26.80
2018-08-22T09:35:04.492Z,26.90
2018-08-22T09:37:33.599Z,26.70
2018-08-22T09:40:03.116Z,26.50
2018-08-22T09:42:33.115Z,26.30
2018-08-22T09:45:03.312Z,26.40
2018-08-22T09:47:32.668Z,26.50
2018-08-22T09:50:01.812Z,26.60
2018-08-22T09:52:31.125Z,26.40
2018-08-22T09:55:05.108Z,26.10
2018-08-22T09:57:34.407Z,26.20
2018-08-22T10:00:05.752Z,25.90
2018-08-22T10:02:34.744Z,25.90
2018-08-22T10:05:03.848Z,26.00
2018-08-22T10:07:33.008Z,26.00
2018-08-22T10:10:02.102Z,26.00
2018-08-22T10:12:31.848Z,26.10
2018-08-22T10:15:01.362Z,26.00
2018-08-22T10:17:30.644Z,26.00
2018-08-22T10:20:00.032Z,26.20
2018-08-22T10:22:29.408Z,26.20
2018-08-22T10:24:58.787Z,26.30
2018-08-22T10:27:28.191Z,26.30
2018-08-22T10:29:58.537Z,26.40
2018-08-22T10:32:28.053Z,26.40
2018-08-22T10:34:57.443Z,26.40
2018-08-22T10:37:26.803Z,26.40
2018-08-22T10:39:55.944Z,26.60
2018-08-22T10:42:25.423Z,26.60
2018-08-22T10:44:54.993Z,26.60
2018-08-22T10:47:24.547Z,26.60
2018-08-22T10:49:54.682Z,26.60
2018-08-22T10:52:24.285Z,26.60
2018-08-22T10:54:53.619Z,26.50
2018-08-22T10:57:23.055Z,26.60
2018-08-22T10:59:54.489Z,26.70
2018-08-22T11:02:23.679Z,26.80
2018-08-22T11:04:53.085Z,26.80
2018-08-22T11:07:22.524Z,26.80
2018-08-22T11:09:52.560Z,26.80
2018-08-22T11:12:21.941Z,26.80
2018-08-22T11:14:51.575Z,26.80
2018-08-22T11:17:21.050Z,26.90
2018-08-22T11:19:50.330Z,26.80
2018-08-22T11:22:36.780Z,26.80
2018-08-22T11:25:23.153Z,26.90
2018-08-22T11:28:09.390Z,27.00
2018-08-22T11:30:55.874Z,27.00
2018-08-22T11:33:36.677Z,27.00
2018-08-22T11:36:04.518Z,27.00
2018-08-22T11:38:33.642Z,27.10
2018-08-22T11:41:03.099Z,27.00
2018-08-22T11:43:32.425Z,27.00
2018-08-22T11:46:01.449Z,27.10
2018-08-22T11:48:30.504Z,27.10
2018-08-22T11:50:59.972Z,26.90
2018-08-22T11:53:29.103Z,27.00
2018-08-22T11:55:58.165Z,26.90
2018-08-22T11:58:27.564Z,26.80
2018-08-22T12:00:57.096Z,26.90
2018-08-22T12:03:26.406Z,26.90
2018-08-22T12:05:55.847Z,26.80
2018-08-22T12:08:25.355Z,26.90
2018-08-22T12:10:54.700Z,26.90
2018-08-22T12:13:23.963Z,27.00
2018-08-22T12:15:53.316Z,27.10
2018-08-22T12:18:22.749Z,27.10
2018-08-22T12:20:52.141Z,27.20
2018-08-22T12:23:23.799Z,27.20
2018-08-22T12:25:52.952Z,27.50
2018-08-22T12:28:22.396Z,27.60
2018-08-22T12:30:51.827Z,27.50
2018-08-22T12:33:21.611Z,27.50
2018-08-22T12:35:50.669Z,27.20
2018-08-22T12:38:20.187Z,27.20
2018-08-22T12:40:50.033Z,27.20
2018-08-22T12:43:19.309Z,27.10
2018-08-22T12:45:48.481Z,27.20
2018-08-22T12:48:17.794Z,27.20
2018-08-22T12:50:47.122Z,27.20
2018-08-22T12:53:16.418Z,27.20
2018-08-22T12:55:45.764Z,27.20
2018-08-22T12:58:14.911Z,27.30
2018-08-22T13:00:44.209Z,27.10
2018-08-22T13:03:13.603Z,27.20
2018-08-22T13:05:42.764Z,27.30
2018-08-22T13:08:12.177Z,27.20
2018-08-22T13:10:41.412Z,27.20
2018-08-22T13:13:10.861Z,27.20
2018-08-22T13:15:40.401Z,27.10
2018-08-22T13:18:09.758Z,27.20
2018-08-22T13:20:39.748Z,27.20
2018-08-22T13:23:09.278Z,27.30
2018-08-22T13:25:38.623Z,27.40
2018-08-22T13:28:07.815Z,27.50
2018-08-22T13:30:37.266Z,27.40
2018-08-22T13:33:06.623Z,27.50
2018-08-22T13:35:37.799Z,27.50
2018-08-22T13:38:07.774Z,27.50
2018-08-22T13:40:37.031Z,27.50
2018-08-22T13:43:06.502Z,27.50
2018-08-22T13:45:35.896Z,27.50
2018-08-22T13:48:08.494Z,27.50
2018-08-22T13:50:38.501Z,27.50
2018-08-22T13:53:08.770Z,27.50
2018-08-22T13:55:38.459Z,27.50
2018-08-22T13:58:07.919Z,27.50
2018-08-22T14:00:37.276Z,27.60
2018-08-22T14:03:06.332Z,27.70
2018-08-22T14:05:35.802Z,27.80
2018-08-22T14:08:05.123Z,27.70
2018-08-22T14:10:34.599Z,27.70
2018-08-22T14:13:04.001Z,27.70
2018-08-22T14:15:33.142Z,27.70
2018-08-22T14:18:02.946Z,27.70
2018-08-22T14:20:32.328Z,27.80
2018-08-22T14:23:01.717Z,27.80
2018-08-22T14:25:31.644Z,27.90
2018-08-22T14:28:01.080Z,28.00
2018-08-22T14:30:30.140Z,27.90
2018-08-22T14:32:59.528Z,27.90
2018-08-22T14:35:29.014Z,27.80
2018-08-22T14:37:58.277Z,27.90
2018-08-22T14:40:27.336Z,28.00
2018-08-22T14:42:56.695Z,28.00
2018-08-22T14:45:26.033Z,27.90
2018-08-22T14:47:56.637Z,27.90
2018-08-22T14:50:26.371Z,27.90
2018-08-22T14:52:55.736Z,27.90
2018-08-22T14:55:25.174Z,27.90
2018-08-22T14:57:54.673Z,28.00
2018-08-22T15:00:24.042Z,28.00
2018-08-22T15:02:54.478Z,28.00
2018-08-22T15:05:23.514Z,28.00
2018-08-22T15:07:52.898Z,28.00
2018-08-22T15:10:22.196Z,27.90
2018-08-22T15:12:51.486Z,27.90
2018-08-22T15:15:20.805Z,27.90
2018-08-22T15:17:50.090Z,27.90
2018-08-22T15:20:19.222Z,27.90
2018-08-22T15:22:49.556Z,27.80
2018-08-22T15:25:19.034Z,27.80
2018-08-22T15:27:48.556Z,27.60
2018-08-22T15:30:17.965Z,27.70
2018-08-22T15:32:47.856Z,27.70
2018-08-22T15:35:17.258Z,27.70
2018-08-22T15:37:46.784Z,27.80
2018-08-22T15:40:16.128Z,27.70
2018-08-22T15:42:45.507Z,27.60
2018-08-22T15:45:14.879Z,27.60
2018-08-22T15:47:44.901Z,27.60
2018-08-22T15:50:13.871Z,27.70
2018-08-22T15:52:43.253Z,27.60
2018-08-22T15:55:15.760Z,27.70
2018-08-22T15:57:56.459Z,27.90
2018-08-22T16:00:36.381Z,27.80
2018-08-22T16:03:07.168Z,27.70
2018-08-22T16:05:37.396Z,27.60
2018-08-22T16:08:06.870Z,27.60
2018-08-22T16:10:36.859Z,27.50
2018-08-22T16:13:09.544Z,27.20
2018-08-22T16:15:39.345Z,27.30
2018-08-22T16:18:09.823Z,27.30
2018-08-22T16:20:46.862Z,27.30
2018-08-22T16:23:16.050Z,27.40
2018-08-22T16:25:47.853Z,27.40
2018-08-22T16:28:17.588Z,27.40
2018-08-22T16:30:56.771Z,27.40
2018-08-22T16:33:40.368Z,27.50
2018-08-22T16:36:14.543Z,27.40
2018-08-22T16:38:43.892Z,27.40
2018-08-22T16:41:13.263Z,27.40
2018-08-22T16:43:43.701Z,27.40
2018-08-22T16:46:15.184Z,27.40
2018-08-22T16:48:47.583Z,27.30
2018-08-22T16:51:16.619Z,27.30
2018-08-22T16:54:11.978Z,27.30
2018-08-22T16:56:41.922Z,27.20
2018-08-22T16:59:13.192Z,27.30
2018-08-22T17:01:48.377Z,27.20
2018-08-22T17:04:17.543Z,27.20
2018-08-22T17:06:47.247Z,27.20
2018-08-22T17:09:16.391Z,27.20
2018-08-22T17:11:45.855Z,27.20
2018-08-22T17:14:15.280Z,27.20
2018-08-22T17:16:44.671Z,27.30
2018-08-22T17:19:14.165Z,27.40
2018-08-22T17:21:43.581Z,27.40
2018-08-22T17:24:13.113Z,27.30
2018-08-22T17:26:42.454Z,27.30
2018-08-22T17:29:11.602Z,27.20
2018-08-22T17:31:40.901Z,27.20
2018-08-22T17:34:10.237Z,27.20
2018-08-22T17:36:39.421Z,27.20
2018-08-22T17:39:08.928Z,27.10
2018-08-22T17:41:38.163Z,27.10
2018-08-22T17:44:08.677Z,27.20
2018-08-22T17:46:40.244Z,27.30
2018-08-22T17:49:10.027Z,27.20
2018-08-22T17:52:12.666Z,27.20
2018-08-22T17:54:42.133Z,27.20
2018-08-22T17:57:21.254Z,27.10
2018-08-22T17:59:53.572Z,27.00
2018-08-22T18:02:22.689Z,26.80
2018-08-22T18:05:03.878Z,26.70
2018-08-22T18:07:33.008Z,26.60
2018-08-22T18:10:03.423Z,26.40
2018-08-22T18:12:32.592Z,26.30
2018-08-22T18:15:12.205Z,26.20
2018-08-22T18:17:41.813Z,26.10
2018-08-22T18:20:13.338Z,26.00
2018-08-22T18:22:42.927Z,25.80
2018-08-22T18:25:12.320Z,25.70
2018-08-22T18:27:42.581Z,25.70
2018-08-22T18:30:12.457Z,25.60
2018-08-22T18:38:10.585Z,25.30
2018-08-22T18:40:39.954Z,25.20
2018-08-22T18:43:09.646Z,25.20
2018-08-22T18:45:55.016Z,25.20
2018-08-22T18:48:24.481Z,25.20
2018-08-22T18:51:00.742Z,25.30
2018-08-22T18:53:29.795Z,25.50
2018-08-22T18:59:12.632Z,25.70
2018-08-22T19:01:42.049Z,25.70
2018-08-22T19:07:07.071Z,25.70
2018-08-22T19:09:39.919Z,25.70
2018-08-22T19:12:09.372Z,25.60
2018-08-22T19:17:28.738Z,25.60
2018-08-22T19:19:57.774Z,25.60
2018-08-22T19:22:27.087Z,25.40
2018-08-22T19:25:06.339Z,25.30
2018-08-22T19:27:35.483Z,25.20
2018-08-22T19:30:06.625Z,25.00
2018-08-22T19:32:42.076Z,24.90
2018-08-22T19:35:11.689Z,24.70
2018-08-22T19:37:41.084Z,24.70
2018-08-22T19:40:11.008Z,24.80
2018-08-22T19:42:41.053Z,24.80
2018-08-22T19:45:10.588Z,24.80
2018-08-22T19:47:40.600Z,24.80
2018-08-22T19:50:10.235Z,24.70
2018-08-22T19:52:39.527Z,24.70
2018-08-22T19:55:09.104Z,24.70
2018-08-22T19:57:39.929Z,24.70
2018-08-22T20:00:16.190Z,24.70
2018-08-22T20:05:51.891Z,24.70
2018-08-22T20:08:39.904Z,24.70
2018-08-22T20:11:09.184Z,24.60
2018-08-22T20:13:50.372Z,24.60
2018-08-22T20:16:31.940Z,24.40
2018-08-22T20:19:15.440Z,24.40
2018-08-22T20:21:44.738Z,24.40
2018-08-22T20:24:14.208Z,24.30
2018-08-22T20:26:49.325Z,24.30
2018-08-22T20:29:18.865Z,24.10
2018-08-22T20:31:48.280Z,24.00
2018-08-22T20:34:17.461Z,24.00
2018-08-22T20:36:49.287Z,23.90
2018-08-22T20:39:18.717Z,24.00
2018-08-22T20:41:50.723Z,24.00
2018-08-22T20:44:21.291Z,24.00
2018-08-22T20:46:50.760Z,24.00
2018-08-22T20:49:20.934Z,24.00
2018-08-22T20:51:50.314Z,24.00
2018-08-22T20:54:21.213Z,24.10
2018-08-22T20:56:55.978Z,24.10
2018-08-22T20:59:25.115Z,24.20
2018-08-22T21:02:03.546Z,24.10
2018-08-22T21:04:33.232Z,24.10
2018-08-22T21:07:02.632Z,24.10
2018-08-22T21:09:32.030Z,24.10
2018-08-22T21:12:01.432Z,24.10
2018-08-22T21:14:31.102Z,24.10
2018-08-22T21:17:00.440Z,24.00
2018-08-22T21:19:29.833Z,24.10
2018-08-22T21:22:03.189Z,24.00
2018-08-22T21:24:32.664Z,24.10
2018-08-22T21:27:02.025Z,24.00
2018-08-22T21:29:38.121Z,23.90
2018-08-22T21:32:07.193Z,24.00
2018-08-22T21:34:37.194Z,23.90
2018-08-22T21:37:25.980Z,23.90
2018-08-22T21:42:57.637Z,23.90
2018-08-22T21:45:27.037Z,23.80
2018-08-22T21:48:13.286Z,23.80
2018-08-22T21:50:43.287Z,23.80
2018-08-22T21:53:12.279Z,23.70
2018-08-22T21:55:42.508Z,23.70
2018-08-22T21:58:12.395Z,23.60
2018-08-22T22:00:44.802Z,23.40
2018-08-22T22:03:15.605Z,23.30
2018-08-22T22:05:51.238Z,23.20
2018-08-22T22:08:20.709Z,23.10
2018-08-22T22:10:50.129Z,23.00
2018-08-22T22:13:19.586Z,22.90
2018-08-22T22:15:50.655Z,22.80
2018-08-22T22:18:19.695Z,22.70
2018-08-22T22:20:52.960Z,22.60
2018-08-22T22:23:22.355Z,22.50
2018-08-22T22:25:51.719Z,22.50
2018-08-22T22:28:25.781Z,22.40
2018-08-22T22:30:55.872Z,22.40
2018-08-22T22:33:25.025Z,22.40
2018-08-22T22:35:54.428Z,22.20
2018-08-22T22:38:24.400Z,22.20
2018-08-22T22:40:53.856Z,22.10
2018-08-22T22:43:23.361Z,22.10
2018-08-22T22:45:52.833Z,22.00
2018-08-22T22:48:35.394Z,22.00
2018-08-22T22:51:04.792Z,21.90
2018-08-22T22:53:34.045Z,21.90
2018-08-22T22:56:03.452Z,21.80
2018-08-22T22:58:34.513Z,21.80
2018-08-22T23:01:03.788Z,21.70
2018-08-22T23:03:33.125Z,21.60
2018-08-22T23:06:02.383Z,21.60
2018-08-22T23:08:31.703Z,21.50
2018-08-22T23:11:00.794Z,21.50
2018-08-22T23:13:30.881Z,21.50
2018-08-22T23:16:00.265Z,21.40
2018-08-22T23:18:29.725Z,21.40
2018-08-22T23:21:00.024Z,21.50
2018-08-22T23:23:37.168Z,21.50
2018-08-22T23:26:16.073Z,21.40
2018-08-22T23:28:45.524Z,21.40
2018-08-22T23:31:19.369Z,21.40
2018-08-22T23:33:48.807Z,21.40
2018-08-22T23:36:18.125Z,21.40
2018-08-22T23:38:47.332Z,21.40
2018-08-22T23:41:16.681Z,21.30
2018-08-22T23:43:52.183Z,21.40
2018-08-22T23:46:21.916Z,21.30
2018-08-22T23:48:57.536Z,21.30
2018-08-22T23:51:26.656Z,21.30
2018-08-22T23:53:59.423Z,21.20
2018-08-22T23:56:29.545Z,21.30
2018-08-22T23:58:59.519Z,21.20
